Time;durP1;ratioP1;P1;durP2;ratioP2;P2;SDS_P1;SDS_P2;PMS_P1;PMS_P2;Temp;Humidity;BMP_temperature;BMP_pressure;BME280_temperature;BME280_humidity;BME280_pressure;Samples;Min_cycle;Max_cycle;Signal;HPM_P1;HPM_P2
2021/08/17 00:01:09;;;;;;;2.38;0.82;;;12.90;99.90;;;;;;4986078;28;20762;-77
2021/08/17 00:03:35;;;;;;;1.33;0.80;;;13.00;99.90;;;;;;4985812;28;20219;-77
2021/08/17 00:06:04;;;;;;;1.27;0.85;;;13.00;99.90;;;;;;4985746;28;20192;-78
2021/08/17 00:08:30;;;;;;;2.90;1.23;;;13.00;99.90;;;;;;4986238;28;20592;-78
2021/08/17 00:10:57;;;;;;;2.80;1.20;;;13.10;99.90;;;;;;4986582;28;20184;-78
2021/08/17 00:13:22;;;;;;;3.05;1.38;;;13.10;99.90;;;;;;4984213;28;20184;-77
2021/08/17 00:15:48;;;;;;;1.98;1.17;;;13.10;99.90;;;;;;4985827;28;20180;-78
2021/08/17 00:18:14;;;;;;;1.88;0.82;;;13.20;99.90;;;;;;4985080;28;20244;-77
2021/08/17 00:20:40;;;;;;;1.95;0.90;;;13.20;99.90;;;;;;4984733;28;20350;-77
2021/08/17 00:23:06;;;;;;;3.28;1.10;;;13.20;99.90;;;;;;4983743;28;20238;-77
2021/08/17 00:25:34;;;;;;;3.45;0.98;;;13.20;99.90;;;;;;4985377;28;20295;-77
2021/08/17 00:28:00;;;;;;;3.28;1.45;;;13.20;99.90;;;;;;4984624;28;20223;-77
2021/08/17 00:30:26;;;;;;;1.45;1.10;;;13.20;99.90;;;;;;4983019;28;20200;-77
2021/08/17 00:32:51;;;;;;;1.33;0.88;;;13.20;99.90;;;;;;4985238;28;20184;-77
2021/08/17 00:35:17;;;;;;;1.52;1.05;;;13.20;99.90;;;;;;4984923;28;20642;-77
2021/08/17 00:37:43;;;;;;;3.03;0.88;;;13.20;99.90;;;;;;4985339;28;20662;-77
2021/08/17 00:40:09;;;;;;;3.75;1.70;;;13.20;99.90;;;;;;4989001;28;20378;-77
2021/08/17 00:42:40;;;;;;;2.72;0.90;;;13.30;99.90;;;;;;4988864;28;20202;-77
2021/08/17 00:45:09;;;;;;;2.05;1.27;;;13.30;99.90;;;;;;4989087;28;20223;-77
2021/08/17 00:47:34;;;;;;;2.70;0.90;;;13.30;99.90;;;;;;4989710;28;20219;-77
2021/08/17 00:50:00;;;;;;;3.05;1.08;;;13.30;99.90;;;;;;4989966;28;20184;-77
2021/08/17 00:52:25;;;;;;;2.60;0.98;;;13.30;99.90;;;;;;4989314;28;20548;-77
2021/08/17 00:54:51;;;;;;;2.92;1.20;;;13.30;99.90;;;;;;4989781;28;20210;-77
2021/08/17 00:57:17;;;;;;;2.38;1.15;;;13.30;99.90;;;;;;4989666;28;20188;-77
2021/08/17 00:59:43;;;;;;;0.82;0.75;;;13.30;99.90;;;;;;4990055;28;20198;-77
2021/08/17 01:02:09;;;;;;;1.02;0.82;;;13.30;99.90;;;;;;4989077;28;20200;-77
2021/08/17 01:04:37;;;;;;;0.95;0.70;;;13.20;99.90;;;;;;4987862;28;20192;-77
2021/08/17 01:07:04;;;;;;;1.25;0.85;;;13.20;99.90;;;;;;4988931;28;20275;-77
2021/08/17 01:09:30;;;;;;;3.50;1.10;;;13.20;99.90;;;;;;4988850;28;20224;-78
2021/08/17 01:11:56;;;;;;;0.95;0.70;;;13.10;99.90;;;;;;4987521;28;20561;-78
2021/08/17 01:14:21;;;;;;;0.98;0.60;;;13.00;99.90;;;;;;4988558;28;20193;-77
2021/08/17 01:16:48;;;;;;;3.92;1.10;;;13.10;99.90;;;;;;4988672;28;20271;-77
2021/08/17 01:19:17;;;;;;;2.15;1.02;;;13.00;99.90;;;;;;4988197;28;20278;-77
2021/08/17 01:21:44;;;;;;;5.90;1.33;;;12.90;99.90;;;;;;4989384;28;20223;-77
2021/08/17 01:24:10;;;;;;;2.20;1.00;;;12.90;99.90;;;;;;4988017;28;20196;-77
2021/08/17 01:26:35;;;;;;;2.25;1.20;;;13.00;99.90;;;;;;4988212;28;20258;-77
2021/08/17 01:29:01;;;;;;;1.58;0.93;;;13.00;99.90;;;;;;4988601;28;20258;-77
2021/08/17 01:31:26;;;;;;;1.42;0.85;;;13.00;99.90;;;;;;4988515;28;20274;-77
2021/08/17 01:33:53;;;;;;;2.40;1.05;;;13.00;99.90;;;;;;4985290;28;20190;-77
2021/08/17 01:36:18;;;;;;;2.50;1.10;;;12.90;99.90;;;;;;4985514;28;20181;-77
2021/08/17 01:38:48;;;;;;;1.92;1.00;;;12.80;99.90;;;;;;4986565;28;20234;-76
2021/08/17 01:41:14;;;;;;;5.47;1.40;;;12.80;99.90;;;;;;4985356;28;20497;-77
2021/08/17 01:43:41;;;;;;;1.50;1.20;;;12.80;99.90;;;;;;4986864;28;20196;-77
2021/08/17 01:46:06;;;;;;;2.58;1.20;;;12.70;99.90;;;;;;4986341;28;20195;-77
2021/08/17 01:48:32;;;;;;;2.00;0.77;;;12.80;99.90;;;;;;4986452;28;20239;-77
2021/08/17 01:50:59;;;;;;;1.05;0.63;;;12.70;99.90;;;;;;4985791;28;20188;-77
2021/08/17 01:53:26;;;;;;;1.38;0.90;;;12.70;99.90;;;;;;4986213;28;20303;-77
2021/08/17 01:55:53;;;;;;;1.05;0.90;;;12.80;99.90;;;;;;4984753;28;20211;-77
2021/08/17 01:58:23;;;;;;;3.10;0.85;;;12.80;99.90;;;;;;4984999;28;20219;-77
2021/08/17 02:00:49;;;;;;;2.78;0.80;;;12.90;99.90;;;;;;4986398;28;20671;-77
2021/08/17 02:03:15;;;;;;;1.33;0.80;;;12.90;99.90;;;;;;4985902;28;20242;-77
2021/08/17 02:05:40;;;;;;;2.55;1.17;;;12.90;99.90;;;;;;4986422;28;20220;-77
2021/08/17 02:08:08;;;;;;;4.22;1.20;;;12.90;99.90;;;;;;4985768;28;20230;-77
2021/08/17 02:10:34;;;;;;;4.32;1.40;;;12.90;99.90;;;;;;4986633;28;20202;-77
2021/08/17 02:12:59;;;;;;;1.52;1.10;;;13.00;99.90;;;;;;4984544;28;20188;-77
2021/08/17 02:15:25;;;;;;;1.05;0.70;;;13.10;99.90;;;;;;4985604;28;20284;-77
2021/08/17 02:17:50;;;;;;;3.47;1.17;;;13.10;99.90;;;;;;4984890;28;20208;-77
2021/08/17 02:20:16;;;;;;;3.05;1.00;;;13.10;99.90;;;;;;4985116;28;20254;-77
2021/08/17 02:22:41;;;;;;;4.45;1.17;;;13.10;99.90;;;;;;4984849;28;20673;-77
2021/08/17 02:25:08;;;;;;;1.50;1.00;;;13.20;99.90;;;;;;4985663;28;20191;-77
2021/08/17 02:27:35;;;;;;;1.30;1.02;;;13.10;99.90;;;;;;4985676;28;20223;-77
2021/08/17 02:30:01;;;;;;;1.70;1.15;;;13.20;99.90;;;;;;4985861;28;20195;-77
2021/08/17 02:32:27;;;;;;;1.55;1.30;;;13.30;99.90;;;;;;4985100;28;20187;-77
2021/08/17 02:34:52;;;;;;;1.60;1.45;;;13.20;99.90;;;;;;4984138;28;20188;-77
2021/08/17 02:37:18;;;;;;;4.75;1.65;;;13.30;99.90;;;;;;4985219;28;20266;-77
2021/08/17 02:39:43;;;;;;;0.90;0.90;;;13.30;99.90;;;;;;4984631;28;20212;-77
2021/08/17 02:42:09;;;;;;;3.53;0.93;;;13.30;99.90;;;;;;4985290;28;20184;-77
2021/08/17 02:44:34;;;;;;;2.60;1.27;;;13.30;99.90;;;;;;4985678;28;20212;-77
2021/08/17 02:47:00;;;;;;;3.35;1.20;;;13.30;99.90;;;;;;4985025;28;20189;-77
2021/08/17 02:49:26;;;;;;;3.17;1.10;;;13.30;99.90;;;;;;4984494;28;20193;-77
2021/08/17 02:51:51;;;;;;;4.25;2.15;;;13.30;99.90;;;;;;4983778;28;20187;-77
2021/08/17 02:54:17;;;;;;;3.05;1.27;;;13.40;99.90;;;;;;4983978;28;20207;-77
2021/08/17 02:56:43;;;;;;;4.25;1.40;;;13.40;99.90;;;;;;4985579;28;20598;-77
2021/08/17 02:59:08;;;;;;;6.18;1.50;;;13.40;99.90;;;;;;4984677;28;20208;-77
2021/08/17 03:01:34;;;;;;;2.95;1.58;;;13.40;99.90;;;;;;4984664;28;20199;-76
2021/08/17 03:03:59;;;;;;;4.65;1.52;;;13.40;99.90;;;;;;4984649;28;20226;-77
2021/08/17 03:06:25;;;;;;;5.63;1.27;;;13.40;99.90;;;;;;4985234;28;20192;-77
2021/08/17 03:08:51;;;;;;;7.32;1.83;;;13.50;99.90;;;;;;4985857;28;20737;-77
2021/08/17 03:11:16;;;;;;;4.03;1.27;;;13.50;99.90;;;;;;4986607;28;20195;-77
2021/08/17 03:13:42;;;;;;;3.33;1.75;;;13.50;99.90;;;;;;4985608;28;21260;-77
2021/08/17 03:16:07;;;;;;;4.15;1.85;;;13.50;99.90;;;;;;4985294;28;20204;-78
2021/08/17 03:18:33;;;;;;;3.53;1.50;;;13.50;99.90;;;;;;4985474;28;20211;-77
2021/08/17 03:20:58;;;;;;;6.70;1.55;;;13.50;99.90;;;;;;4984714;28;20237;-77
2021/08/17 03:23:27;;;;;;;4.40;1.67;;;13.40;99.90;;;;;;4985735;28;20562;-77
2021/08/17 03:25:55;;;;;;;3.17;1.45;;;13.40;99.90;;;;;;4983162;28;20711;-77
2021/08/17 03:28:20;;;;;;;4.35;1.70;;;13.40;99.90;;;;;;4984320;28;20215;-77
2021/08/17 03:30:46;;;;;;;4.43;1.55;;;13.30;99.90;;;;;;4985706;28;20188;-78
2021/08/17 03:33:12;;;;;;;3.45;1.98;;;13.30;99.90;;;;;;4984950;28;20319;-77
2021/08/17 03:35:37;;;;;;;5.15;2.03;;;13.30;99.90;;;;;;4984331;28;20207;-77
2021/08/17 03:38:03;;;;;;;3.33;2.05;;;13.40;99.90;;;;;;4984117;28;20244;-77
2021/08/17 03:40:29;;;;;;;4.45;1.52;;;13.40;99.90;;;;;;4985472;28;20579;-77
2021/08/17 03:42:55;;;;;;;4.75;1.60;;;13.40;99.90;;;;;;4983885;28;20665;-76
2021/08/17 03:45:22;;;;;;;4.28;1.70;;;13.40;99.90;;;;;;4985835;28;20191;-78
2021/08/17 03:47:48;;;;;;;3.92;1.40;;;13.40;99.90;;;;;;4985116;28;20211;-78
2021/08/17 03:50:14;;;;;;;4.03;1.45;;;13.40;99.90;;;;;;4988696;28;20534;-77
2021/08/17 03:52:41;;;;;;;3.60;1.70;;;13.50;99.90;;;;;;4987015;28;20191;-78
2021/08/17 03:55:08;;;;;;;3.13;1.80;;;13.40;99.90;;;;;;4987480;28;20184;-77
2021/08/17 03:57:34;;;;;;;9.85;3.13;;;13.40;99.90;;;;;;4987103;28;20219;-78
2021/08/17 03:59:59;;;;;;;5.90;1.90;;;13.40;99.90;;;;;;4987598;28;20196;-76
2021/08/17 04:02:25;;;;;;;2.83;1.70;;;13.40;99.90;;;;;;4986863;28;20570;-75
2021/08/17 04:04:50;;;;;;;2.38;1.40;;;13.50;99.90;;;;;;4987266;28;20678;-77
2021/08/17 04:07:16;;;;;;;5.22;1.42;;;13.50;99.90;;;;;;4986355;28;20635;-78
2021/08/17 04:09:42;;;;;;;4.53;1.77;;;13.40;99.90;;;;;;4985984;28;20266;-77
2021/08/17 04:12:08;;;;;;;2.00;1.52;;;13.40;99.90;;;;;;4986506;28;20204;-77
2021/08/17 04:14:33;;;;;;;5.93;1.52;;;13.50;99.90;;;;;;4986794;28;20271;-78
2021/08/17 04:16:59;;;;;;;4.32;1.85;;;13.50;99.90;;;;;;4986098;28;20234;-77
2021/08/17 04:19:26;;;;;;;3.03;1.48;;;13.50;99.90;;;;;;4987153;28;20223;-77
2021/08/17 04:21:51;;;;;;;1.83;1.25;;;13.40;99.90;;;;;;4985388;28;20188;-77
2021/08/17 04:24:17;;;;;;;1.83;1.17;;;13.40;99.90;;;;;;4986740;28;20306;-77
2021/08/17 04:26:43;;;;;;;2.30;1.27;;;13.50;99.90;;;;;;4984744;28;20196;-77
2021/08/17 04:29:08;;;;;;;8.77;2.58;;;13.50;99.90;;;;;;4985359;28;20555;-76
2021/08/17 04:31:34;;;;;;;3.33;1.25;;;13.50;99.90;;;;;;4986609;28;20188;-78
2021/08/17 04:34:00;;;;;;;6.22;2.25;;;13.50;99.90;;;;;;4986367;28;20229;-78
2021/08/17 04:36:25;;;;;;;1.48;1.30;;;13.50;99.90;;;;;;4987077;28;20191;-78
2021/08/17 04:38:51;;;;;;;5.72;1.75;;;13.50;99.90;;;;;;4988547;28;20250;-76
2021/08/17 04:41:16;;;;;;;2.83;1.63;;;13.50;99.90;;;;;;4986272;28;20561;-78
2021/08/17 04:43:42;;;;;;;2.75;1.60;;;13.50;99.90;;;;;;4986679;28;20589;-77
2021/08/17 04:46:08;;;;;;;3.92;1.75;;;13.50;99.90;;;;;;4987211;28;20180;-77
2021/08/17 04:48:33;;;;;;;2.70;1.15;;;13.50;99.90;;;;;;4987347;28;20212;-77
2021/08/17 04:50:59;;;;;;;3.25;1.85;;;13.50;99.90;;;;;;4987466;28;20207;-77
2021/08/17 04:53:26;;;;;;;2.65;1.30;;;13.50;99.90;;;;;;4987106;28;20259;-78
2021/08/17 04:55:52;;;;;;;5.10;2.00;;;13.50;99.90;;;;;;4987150;28;20196;-78
2021/08/17 04:58:17;;;;;;;2.28;1.38;;;13.40;99.90;;;;;;4987373;28;20215;-77
2021/08/17 05:00:44;;;;;;;2.75;1.17;;;13.50;99.90;;;;;;4986553;28;20196;-75
2021/08/17 05:03:10;;;;;;;6.72;1.48;;;13.40;99.90;;;;;;4986810;28;20242;-75
2021/08/17 05:05:36;;;;;;;5.82;1.33;;;13.30;99.90;;;;;;4987573;28;20188;-76
2021/08/17 05:08:09;;;;;;;3.30;1.30;;;13.30;99.90;;;;;;4986925;28;20290;-76
2021/08/17 05:10:36;;;;;;;1.70;1.38;;;13.30;99.90;;;;;;4987987;28;20185;-78
2021/08/17 05:13:03;;;;;;;1.85;1.58;;;13.40;99.90;;;;;;4986655;28;20195;-77
2021/08/17 05:15:30;;;;;;;5.97;1.52;;;13.40;99.90;;;;;;4987324;28;20666;-78
2021/08/17 05:17:55;;;;;;;2.95;2.13;;;13.50;99.90;;;;;;4987504;28;20439;-78
2021/08/17 05:20:21;;;;;;;3.10;1.70;;;13.50;99.90;;;;;;4988485;28;20239;-77
2021/08/17 05:22:46;;;;;;;4.35;1.77;;;13.50;99.90;;;;;;4986504;28;20308;-77
2021/08/17 05:25:13;;;;;;;2.88;1.05;;;13.50;99.90;;;;;;4986913;28;20187;-78
2021/08/17 05:27:39;;;;;;;3.60;1.52;;;13.60;99.90;;;;;;4990273;28;20220;-76
2021/08/17 05:30:05;;;;;;;2.35;1.10;;;13.70;99.90;;;;;;4991748;28;20276;-77
2021/08/17 05:32:31;;;;;;;2.17;1.30;;;13.70;99.90;;;;;;4990930;28;20184;-78
2021/08/17 05:34:57;;;;;;;2.15;1.67;;;13.70;99.90;;;;;;4989433;28;20486;-78
2021/08/17 05:37:23;;;;;;;3.53;1.67;;;13.70;99.90;;;;;;4989166;28;20211;-77
2021/08/17 05:39:48;;;;;;;4.57;1.92;;;13.70;99.90;;;;;;4987855;28;20600;-77
2021/08/17 05:42:14;;;;;;;4.57;2.00;;;13.60;99.90;;;;;;4990679;28;20187;-78
2021/08/17 05:44:41;;;;;;;1.35;1.10;;;13.60;99.90;;;;;;4990066;28;20199;-78
2021/08/17 05:47:08;;;;;;;2.03;1.48;;;13.60;99.90;;;;;;4990094;28;20202;-78
2021/08/17 05:49:36;;;;;;;2.63;1.40;;;13.60;99.90;;;;;;4990059;28;20202;-78
2021/08/17 05:52:03;;;;;;;2.90;1.23;;;13.70;99.90;;;;;;4989552;28;20235;-78
2021/08/17 05:54:28;;;;;;;0.70;0.70;;;13.80;99.90;;;;;;4990127;28;20188;-78
2021/08/17 05:56:57;;;;;;;3.25;1.08;;;13.80;99.90;;;;;;4990352;28;20184;-78
2021/08/17 05:59:23;;;;;;;2.75;2.05;;;13.90;99.90;;;;;;4990045;28;20620;-78
2021/08/17 06:01:48;;;;;;;3.58;2.40;;;13.90;99.90;;;;;;4990333;28;20192;-76
2021/08/17 06:04:14;;;;;;;3.75;1.30;;;14.00;99.90;;;;;;4990337;28;20192;-78
2021/08/17 06:06:40;;;;;;;3.75;1.67;;;14.00;99.90;;;;;;4989686;28;20432;-77
2021/08/17 06:09:05;;;;;;;5.80;1.40;;;14.00;99.90;;;;;;4990650;28;20597;-78
2021/08/17 06:11:31;;;;;;;3.15;1.52;;;14.10;99.90;;;;;;4990440;28;20256;-78
2021/08/17 06:13:57;;;;;;;1.60;1.08;;;14.10;99.90;;;;;;4989799;28;20180;-78
2021/08/17 06:16:22;;;;;;;3.88;1.40;;;14.10;99.90;;;;;;4989282;28;20191;-77
2021/08/17 06:18:48;;;;;;;3.88;1.52;;;14.00;99.90;;;;;;4986948;28;20211;-77
2021/08/17 06:21:13;;;;;;;4.30;1.65;;;14.10;99.90;;;;;;4985440;28;20637;-76
2021/08/17 06:23:39;;;;;;;3.22;1.15;;;14.20;99.90;;;;;;4987623;28;20188;-78
2021/08/17 06:26:04;;;;;;;2.30;1.02;;;14.30;99.90;;;;;;4989840;28;20194;-78
2021/08/17 06:28:30;;;;;;;2.78;1.55;;;14.30;99.90;;;;;;4992296;28;20220;-77
2021/08/17 06:30:55;;;;;;;4.43;1.35;;;14.30;99.90;;;;;;4988471;28;20219;-77
2021/08/17 06:33:21;;;;;;;2.08;1.45;;;14.40;99.90;;;;;;4989126;28;20618;-77
2021/08/17 06:35:47;;;;;;;4.57;1.55;;;14.60;99.90;;;;;;4988527;28;20188;-78
2021/08/17 06:38:12;;;;;;;2.78;1.42;;;14.60;99.90;;;;;;4987638;28;20479;-78
2021/08/17 06:40:38;;;;;;;3.47;1.45;;;14.60;99.90;;;;;;4990056;28;20601;-78
2021/08/17 06:43:03;;;;;;;3.35;1.40;;;14.60;99.90;;;;;;4989603;28;20271;-76
2021/08/17 06:45:29;;;;;;;2.83;1.25;;;14.60;99.90;;;;;;4989800;28;20185;-78
2021/08/17 06:47:57;;;;;;;3.83;1.73;;;14.60;99.90;;;;;;4989363;28;20668;-78
2021/08/17 06:50:22;;;;;;;2.13;1.30;;;14.60;99.90;;;;;;4988838;28;20271;-77
2021/08/17 06:52:48;;;;;;;4.85;1.40;;;14.50;99.90;;;;;;4987946;28;20245;-76
2021/08/17 06:55:14;;;;;;;2.30;1.45;;;14.60;99.90;;;;;;4989129;28;20211;-77
2021/08/17 06:57:40;;;;;;;3.03;1.27;;;14.60;99.90;;;;;;4988168;28;20207;-78
2021/08/17 07:00:09;;;;;;;3.17;1.92;;;14.70;99.90;;;;;;4989537;28;20657;-77
2021/08/17 07:02:34;;;;;;;2.78;1.10;;;14.70;99.90;;;;;;4989809;28;20852;-77
2021/08/17 07:05:01;;;;;;;2.15;1.20;;;14.80;99.90;;;;;;4990429;28;20211;-78
2021/08/17 07:07:26;;;;;;;4.82;1.48;;;14.90;99.90;;;;;;4988969;28;20270;-77
2021/08/17 07:09:52;;;;;;;3.70;1.63;;;14.90;99.90;;;;;;4989818;28;20188;-78
2021/08/17 07:12:17;;;;;;;1.30;1.00;;;15.00;99.90;;;;;;4988895;28;20319;-78
2021/08/17 07:14:43;;;;;;;9.75;1.45;;;15.10;99.90;;;;;;4989043;28;20267;-77
2021/08/17 07:17:09;;;;;;;1.58;0.88;;;15.20;99.90;;;;;;4989454;28;20211;-78
2021/08/17 07:19:35;;;;;;;1.23;1.10;;;15.50;99.90;;;;;;4989134;28;20234;-78
2021/08/17 07:22:01;;;;;;;3.20;0.95;;;15.40;99.90;;;;;;4988465;28;20616;-78
2021/08/17 07:24:27;;;;;;;2.05;1.23;;;15.40;99.90;;;;;;4989025;28;20710;-76
2021/08/17 07:26:54;;;;;;;3.08;1.50;;;15.40;99.90;;;;;;4988735;28;20686;-78
2021/08/17 07:29:19;;;;;;;2.83;1.13;;;15.40;99.90;;;;;;4988871;28;20231;-77
2021/08/17 07:31:45;;;;;;;1.55;1.13;;;15.40;99.90;;;;;;4988873;28;20180;-77
2021/08/17 07:34:11;;;;;;;3.63;1.10;;;15.50;99.90;;;;;;4988142;28;20198;-78
2021/08/17 07:36:36;;;;;;;2.63;0.77;;;15.50;99.90;;;;;;4989640;28;20192;-78
2021/08/17 07:39:04;;;;;;;1.92;1.10;;;15.50;99.90;;;;;;4988878;28;20291;-77
2021/08/17 07:41:29;;;;;;;1.52;1.02;;;15.50;99.90;;;;;;4988349;28;20564;-77
2021/08/17 07:43:55;;;;;;;1.58;1.00;;;15.60;99.90;;;;;;4988340;28;20256;-78
2021/08/17 07:46:21;;;;;;;2.53;0.80;;;15.80;99.90;;;;;;4987272;28;20236;-76
2021/08/17 07:48:46;;;;;;;3.00;1.00;;;16.10;99.90;;;;;;4987668;28;20218;-78
2021/08/17 07:51:12;;;;;;;1.45;0.82;;;16.10;99.90;;;;;;4986859;28;20726;-78
2021/08/17 07:53:38;;;;;;;4.82;1.27;;;16.00;99.90;;;;;;4988505;28;20576;-78
2021/08/17 07:56:04;;;;;;;5.35;1.33;;;15.90;99.90;;;;;;4988674;28;20529;-78
2021/08/17 07:58:29;;;;;;;2.80;1.23;;;16.10;99.90;;;;;;4988983;28;20326;-78
2021/08/17 08:00:55;;;;;;;1.05;0.60;;;16.20;99.90;;;;;;4988200;28;20291;-78
2021/08/17 08:03:20;;;;;;;1.10;0.93;;;16.20;99.90;;;;;;4988762;28;20361;-78
2021/08/17 08:05:46;;;;;;;1.50;0.98;;;16.30;99.90;;;;;;4987441;28;20248;-77
2021/08/17 08:08:11;;;;;;;2.97;1.55;;;16.00;99.90;;;;;;4987392;28;20608;-77
2021/08/17 08:10:37;;;;;;;2.53;1.15;;;15.90;99.90;;;;;;4987638;28;20184;-79
2021/08/17 08:13:03;;;;;;;1.85;0.82;;;15.90;99.90;;;;;;4988556;28;20658;-78
2021/08/17 08:15:28;;;;;;;3.88;1.65;;;15.90;99.90;;;;;;4988723;28;20192;-78
2021/08/17 08:17:54;;;;;;;1.42;0.90;;;15.90;99.90;;;;;;4988354;28;20625;-78
2021/08/17 08:20:20;;;;;;;1.38;1.02;;;15.90;99.90;;;;;;4987948;28;20207;-78
2021/08/17 08:22:46;;;;;;;1.00;0.90;;;15.90;99.90;;;;;;4988634;28;20589;-77
2021/08/17 08:25:12;;;;;;;4.47;1.15;;;16.10;99.90;;;;;;4988590;28;20203;-79
2021/08/17 08:27:38;;;;;;;3.65;0.82;;;16.10;99.90;;;;;;4988872;28;20215;-79
2021/08/17 08:30:05;;;;;;;1.95;1.10;;;16.30;99.90;;;;;;4989774;28;20184;-78
2021/08/17 08:32:31;;;;;;;1.58;0.63;;;16.60;99.90;;;;;;4988750;28;20192;-78
2021/08/17 08:34:56;;;;;;;3.00;1.15;;;16.80;99.90;;;;;;4986714;28;20186;-77
2021/08/17 08:37:22;;;;;;;1.65;1.23;;;16.80;99.90;;;;;;4989052;28;20216;-77
2021/08/17 08:39:47;;;;;;;2.95;1.25;;;16.90;99.90;;;;;;4989170;28;20216;-78
2021/08/17 08:42:13;;;;;;;3.92;1.30;;;17.10;99.90;;;;;;4988756;28;20202;-79
2021/08/17 08:44:39;;;;;;;1.23;1.08;;;17.60;99.90;;;;;;4988953;28;20211;-78
2021/08/17 08:47:05;;;;;;;2.38;0.80;;;17.60;99.90;;;;;;4988456;28;20248;-78
2021/08/17 08:49:32;;;;;;;1.35;0.80;;;17.40;99.90;;;;;;4987619;28;20298;-78
2021/08/17 08:52:00;;;;;;;1.02;0.70;;;17.30;99.90;;;;;;4988154;28;20183;-76
2021/08/17 08:54:26;;;;;;;3.65;1.23;;;17.50;99.90;;;;;;4987176;28;20212;-78
2021/08/17 08:56:52;;;;;;;2.50;0.82;;;17.50;99.90;;;;;;4988578;28;20726;-78
2021/08/17 08:59:18;;;;;;;2.15;0.98;;;17.40;99.90;;;;;;4991039;28;20208;-77
2021/08/17 09:01:47;;;;;;;4.68;1.10;;;17.50;99.90;;;;;;4993183;28;20230;-78
2021/08/17 09:04:14;;;;;;;3.22;0.90;;;17.70;99.90;;;;;;4992450;28;20188;-78
2021/08/17 09:06:55;;;;;;;3.00;1.13;;;17.60;99.90;;;;;;4992957;28;20461;-78
2021/08/17 09:09:21;;;;;;;2.70;1.13;;;17.70;99.90;;;;;;4992290;28;20212;-77
2021/08/17 09:11:54;;;;;;;2.78;1.17;;;17.80;99.90;;;;;;4992366;28;20222;-78
2021/08/17 09:14:22;;;;;;;2.58;1.35;;;18.00;99.90;;;;;;4991817;28;20512;-78
2021/08/17 09:16:55;;;;;;;3.28;1.25;;;17.90;99.90;;;;;;4990812;28;20341;-78
2021/08/17 09:19:34;;;;;;;0.88;0.50;;;17.70;99.90;;;;;;4991631;28;20211;-77
2021/08/17 09:22:04;;;;;;;2.15;1.02;;;17.60;99.90;;;;;;4991567;28;20188;-79
2021/08/17 09:24:35;;;;;;;6.18;1.58;;;17.50;99.90;;;;;;4990805;28;20184;-77
2021/08/17 09:27:12;;;;;;;4.90;1.83;;;17.60;99.90;;;;;;4988672;28;20188;-76
2021/08/17 09:29:40;;;;;;;2.15;0.65;;;17.70;99.90;;;;;;4986173;28;20218;-76
2021/08/17 09:32:24;;;;;;;3.63;1.15;;;18.00;99.90;;;;;;4989557;28;20275;-77
2021/08/17 09:34:53;;;;;;;1.38;0.95;;;18.10;99.90;;;;;;4989229;28;20184;-78
2021/08/17 09:37:20;;;;;;;2.67;0.95;;;17.80;99.90;;;;;;4991449;28;20223;-78
2021/08/17 09:39:54;;;;;;;3.47;1.13;;;17.60;99.90;;;;;;4991748;28;20180;-78
2021/08/17 09:42:25;;;;;;;3.78;1.85;;;17.50;99.90;;;;;;4992279;28;20523;-78
2021/08/17 09:45:16;;;;;;;1.42;1.17;;;17.60;99.90;;;;;;4991779;28;20188;-78
2021/08/17 09:47:53;;;;;;;4.88;1.67;;;17.80;99.90;;;;;;4990784;28;20212;-78
2021/08/17 09:50:30;;;;;;;3.45;1.30;;;18.00;99.90;;;;;;4991611;28;20200;-78
2021/08/17 09:53:09;;;;;;;1.52;0.82;;;18.20;99.90;;;;;;4991007;28;20258;-77
2021/08/17 09:55:41;;;;;;;1.67;0.88;;;18.10;99.90;;;;;;4989900;28;20532;-78
2021/08/17 09:58:26;;;;;;;3.15;2.08;;;17.70;99.90;;;;;;4990086;28;20246;-78
2021/08/17 10:00:55;;;;;;;5.72;1.70;;;17.60;99.90;;;;;;4991464;28;20358;-78
2021/08/17 10:03:21;;;;;;;2.00;1.50;;;17.60;99.90;;;;;;4990611;28;20253;-78
2021/08/17 10:05:48;;;;;;;2.33;1.00;;;17.50;99.90;;;;;;4989214;28;20192;-78
2021/08/17 10:08:16;;;;;;;4.90;1.23;;;17.50;99.90;;;;;;4990629;28;20227;-77
2021/08/17 10:10:44;;;;;;;2.20;1.17;;;17.80;99.90;;;;;;4989895;28;20313;-78
2021/08/17 10:13:12;;;;;;;3.28;1.55;;;17.90;99.90;;;;;;4991131;28;20637;-78
2021/08/17 10:15:39;;;;;;;3.47;1.98;;;18.20;99.90;;;;;;4990970;28;20635;-78
2021/08/17 10:18:07;;;;;;;1.45;1.02;;;18.30;99.90;;;;;;4990822;28;20216;-78
2021/08/17 10:20:32;;;;;;;3.67;1.90;;;18.40;99.90;;;;;;4990646;28;20204;-78
2021/08/17 10:22:58;;;;;;;1.35;1.00;;;18.40;99.90;;;;;;4990863;28;20195;-78
2021/08/17 10:25:24;;;;;;;3.17;1.33;;;18.20;99.90;;;;;;4989799;28;20188;-77
2021/08/17 10:27:50;;;;;;;1.15;1.02;;;18.00;99.90;;;;;;4989124;28;20212;-78
2021/08/17 10:30:19;;;;;;;3.40;1.38;;;17.60;99.90;;;;;;4990423;28;20184;-78
2021/08/17 10:32:48;;;;;;;2.50;1.05;;;17.30;99.90;;;;;;4989918;28;20180;-78
2021/08/17 10:35:26;;;;;;;2.10;1.20;;;17.20;99.90;;;;;;4990459;28;20188;-78
2021/08/17 10:38:07;;;;;;;2.58;1.42;;;17.50;99.90;;;;;;4989266;28;20203;-78
2021/08/17 10:40:48;;;;;;;2.83;1.35;;;17.90;99.90;;;;;;4990580;28;20278;-76
2021/08/17 10:43:15;;;;;;;3.33;1.35;;;18.30;99.90;;;;;;4988681;28;20180;-78
2021/08/17 10:46:18;;;;;;;4.63;1.20;;;18.40;99.90;;;;;;4989918;28;20558;-78
2021/08/17 10:48:44;;;;;;;2.78;1.38;;;18.50;99.90;;;;;;4985350;28;20219;-78
2021/08/17 10:51:19;;;;;;;1.83;1.33;;;18.40;99.90;;;;;;4990318;28;20187;-78
2021/08/17 10:53:45;;;;;;;3.35;1.30;;;18.10;99.90;;;;;;4989345;28;20290;-78
2021/08/17 10:56:18;;;;;;;2.72;1.20;;;18.00;99.90;;;;;;4990609;28;20536;-77
2021/08/17 10:58:47;;;;;;;2.05;1.45;;;17.90;99.90;;;;;;4990179;28;20816;-77
2021/08/17 11:01:12;;;;;;;3.20;1.75;;;17.90;99.90;;;;;;4991046;28;20551;-78
2021/08/17 11:03:47;;;;;;;4.72;1.63;;;18.10;99.90;;;;;;4990544;28;20195;-78
2021/08/17 11:06:33;;;;;;;3.75;1.55;;;18.40;99.90;;;;;;4989909;28;20198;-78
2021/08/17 11:08:59;;;;;;;2.25;1.58;;;18.30;99.90;;;;;;4989297;28;20215;-77
2021/08/17 11:11:25;;;;;;;4.30;1.63;;;18.10;99.90;;;;;;4990213;28;20709;-78
2021/08/17 11:14:04;;;;;;;2.92;1.35;;;17.80;99.90;;;;;;4990205;28;20286;-78
2021/08/17 11:16:31;;;;;;;2.50;1.58;;;17.60;99.90;;;;;;4990079;28;20190;-78
2021/08/17 11:19:01;;;;;;;1.73;1.10;;;17.40;99.90;;;;;;4989342;28;20212;-78
2021/08/17 11:21:41;;;;;;;2.83;1.85;;;17.30;99.90;;;;;;4990425;28;20195;-77
2021/08/17 11:24:25;;;;;;;3.10;1.75;;;17.60;99.90;;;;;;4989350;28;20184;-78
2021/08/17 11:26:52;;;;;;;5.25;1.52;;;17.90;99.90;;;;;;4996424;28;20203;-77
2021/08/17 11:29:46;;;;;;;3.03;1.77;;;18.10;99.90;;;;;;4998244;28;20266;-79
2021/08/17 11:32:32;;;;;;;5.25;2.15;;;18.30;99.90;;;;;;4987227;28;20219;-79
2021/08/17 11:35:01;;;;;;;3.33;1.73;;;18.20;99.90;;;;;;4987970;28;20216;-78
2021/08/17 11:37:28;;;;;;;3.30;1.92;;;17.90;99.90;;;;;;4988046;28;20231;-78
2021/08/17 11:39:56;;;;;;;3.95;1.85;;;18.00;99.90;;;;;;4987933;28;20293;-78
2021/08/17 11:42:30;;;;;;;4.85;1.70;;;18.30;99.90;;;;;;4988160;28;20199;-78
2021/08/17 11:45:00;;;;;;;3.10;1.60;;;18.50;99.90;;;;;;4987380;28;20674;-78
2021/08/17 11:47:27;;;;;;;3.15;1.60;;;18.70;99.90;;;;;;4987799;28;20235;-77
2021/08/17 11:49:56;;;;;;;4.03;1.98;;;19.00;99.90;;;;;;4987835;28;20180;-78
2021/08/17 11:52:24;;;;;;;4.75;2.03;;;19.10;99.90;;;;;;4987527;28;20184;-77
2021/08/17 11:54:53;;;;;;;4.43;1.70;;;18.90;99.90;;;;;;4986652;28;20188;-78
2021/08/17 11:57:23;;;;;;;5.30;1.83;;;18.80;99.90;;;;;;4987617;28;20215;-78
2021/08/17 11:59:50;;;;;;;3.05;1.88;;;19.00;99.90;;;;;;4987435;28;20181;-78
2021/08/17 12:02:22;;;;;;;3.35;1.88;;;18.90;99.90;;;;;;4987504;28;20290;-76
2021/08/17 12:04:56;;;;;;;3.42;1.80;;;19.00;99.90;;;;;;4986610;28;20512;-78
2021/08/17 12:07:24;;;;;;;3.22;2.15;;;18.90;99.90;;;;;;4987515;28;20188;-78
2021/08/17 12:09:50;;;;;;;4.22;2.30;;;18.70;99.90;;;;;;4987203;28;20192;-78
2021/08/17 12:12:19;;;;;;;3.92;2.60;;;18.30;99.90;;;;;;4987467;28;20188;-77
2021/08/17 12:14:45;;;;;;;3.85;2.20;;;18.20;99.90;;;;;;4987498;28;20254;-76
2021/08/17 12:17:19;;;;;;;5.05;2.63;;;18.10;99.90;;;;;;4988136;28;20188;-78
2021/08/17 12:19:50;;;;;;;4.05;2.85;;;18.10;99.90;;;;;;4986767;28;20291;-77
2021/08/17 12:22:26;;;;;;;3.42;2.25;;;18.00;99.90;;;;;;4987022;28;20219;-78
2021/08/17 12:24:53;;;;;;;3.92;2.38;;;17.80;99.90;;;;;;4987502;28;20187;-77
2021/08/17 12:27:24;;;;;;;4.65;2.45;;;17.70;99.90;;;;;;4987485;28;20267;-77
2021/08/17 12:29:51;;;;;;;2.88;1.85;;;17.60;99.90;;;;;;4983470;28;20563;-77
2021/08/17 12:32:28;;;;;;;5.15;2.53;;;17.60;99.90;;;;;;4985197;28;20192;-78
2021/08/17 12:35:03;;;;;;;3.42;2.63;;;17.60;99.90;;;;;;4990868;28;20195;-76
2021/08/17 12:37:38;;;;;;;4.25;2.75;;;17.70;99.90;;;;;;4991423;28;20204;-78
2021/08/17 12:40:11;;;;;;;4.78;3.20;;;17.80;99.90;;;;;;4991430;28;20183;-76
2021/08/17 12:42:42;;;;;;;5.35;2.97;;;17.90;99.90;;;;;;4991342;28;20263;-78
2021/08/17 12:45:30;;;;;;;6.38;3.05;;;18.00;99.90;;;;;;4990326;28;20190;-78
2021/08/17 12:48:02;;;;;;;4.82;2.55;;;18.10;99.90;;;;;;4990289;28;20200;-77
2021/08/17 12:50:42;;;;;;;3.95;2.33;;;18.20;99.90;;;;;;4989671;28;20190;-77